Time;durP1;ratioP1;P1;durP2;ratioP2;P2;SDS_P1;SDS_P2;PMS_P1;PMS_P2;Temp;Humidity;BMP_temperature;BMP_pressure;BME280_temperature;BME280_humidity;BME280_pressure;Samples;Min_cycle;Max_cycle;Signal;HPM_P1;HPM_P2
2021/11/14 00:00:51;;;;;;;32.95;14.27;;;;;;;;;;5026437;28;20029;-56
2021/11/14 00:03:17;;;;;;;35.05;15.98;;;;;;;;;;5023784;28;20522;-56
2021/11/14 00:05:44;;;;;;;39.25;17.08;;;;;;;;;;5025077;28;20033;-56
2021/11/14 00:08:13;;;;;;;35.03;15.40;;;;;;;;;;5023248;28;20462;-56
2021/11/14 00:10:40;;;;;;;33.95;15.73;;;;;;;;;;5020449;28;20436;-56
2021/11/14 00:13:06;;;;;;;31.75;14.13;;;;;;;;;;5022071;28;20523;-56
2021/11/14 00:15:32;;;;;;;31.67;14.52;;;;;;;;;;5022950;28;20108;-56
2021/11/14 00:17:57;;;;;;;33.08;13.93;;;;;;;;;;5024023;28;20073;-56
2021/11/14 00:20:24;;;;;;;34.47;14.52;;;;;;;;;;5020719;28;20389;-56
2021/11/14 00:22:49;;;;;;;36.35;15.48;;;;;;;;;;5022729;28;20038;-55
2021/11/14 00:25:17;;;;;;;34.22;15.32;;;;;;;;;;5023108;28;20018;-56
2021/11/14 00:27:45;;;;;;;33.47;14.50;;;;;;;;;;5024947;28;20035;-55
2021/11/14 00:30:11;;;;;;;33.65;14.82;;;;;;;;;;5023768;28;20060;-55
2021/11/14 00:32:37;;;;;;;33.53;15.57;;;;;;;;;;5024213;28;20048;-57
2021/11/14 00:35:04;;;;;;;34.40;14.52;;;;;;;;;;5018712;28;20480;-58
2021/11/14 00:37:32;;;;;;;34.15;15.10;;;;;;;;;;5025151;28;20021;-58
2021/11/14 00:39:58;;;;;;;33.22;14.00;;;;;;;;;;5026458;28;20068;-58
2021/11/14 00:42:23;;;;;;;34.17;14.52;;;;;;;;;;5021792;28;20573;-57
2021/11/14 00:44:48;;;;;;;31.92;14.23;;;;;;;;;;5025587;28;20227;-57
2021/11/14 00:47:14;;;;;;;32.03;14.07;;;;;;;;;;5026240;28;20065;-57
2021/11/14 00:49:39;;;;;;;32.47;13.55;;;;;;;;;;5027031;28;20073;-57
2021/11/14 00:52:05;;;;;;;30.08;14.00;;;;;;;;;;5022950;28;20026;-57
2021/11/14 00:54:31;;;;;;;32.67;13.93;;;;;;;;;;5019328;28;20025;-57
2021/11/14 00:56:56;;;;;;;31.58;12.85;;;;;;;;;;5020326;28;20033;-57
2021/11/14 00:59:22;;;;;;;29.45;13.05;;;;;;;;;;5028059;28;20487;-57
2021/11/14 01:01:47;;;;;;;32.05;13.95;;;;;;;;;;5020287;28;20026;-57
2021/11/14 01:04:13;;;;;;;35.47;14.25;;;;;;;;;;5022882;28;20579;-57
2021/11/14 01:06:38;;;;;;;31.33;14.25;;;;;;;;;;5021589;28;20051;-57
2021/11/14 01:09:04;;;;;;;24.52;12.63;;;;;;;;;;5020613;28;20029;-57
2021/11/14 01:11:30;;;;;;;31.02;12.73;;;;;;;;;;5027864;28;20025;-57
2021/11/14 01:13:55;;;;;;;30.95;13.27;;;;;;;;;;5021700;28;20464;-57
2021/11/14 01:16:23;;;;;;;29.35;11.93;;;;;;;;;;5019093;28;20421;-57
2021/11/14 01:18:48;;;;;;;28.55;12.77;;;;;;;;;;5040769;28;20038;-57
2021/11/14 01:21:16;;;;;;;29.40;12.63;;;;;;;;;;5023151;28;20033;-57
2021/11/14 01:23:43;;;;;;;28.58;12.65;;;;;;;;;;5020144;28;20083;-57
2021/11/14 01:26:09;;;;;;;29.00;13.20;;;;;;;;;;5021295;28;20057;-57
2021/11/14 01:28:35;;;;;;;29.42;13.02;;;;;;;;;;5027871;28;20440;-57
2021/11/14 01:31:00;;;;;;;27.92;12.85;;;;;;;;;;5022347;28;20029;-57
2021/11/14 01:33:28;;;;;;;28.85;12.35;;;;;;;;;;5023571;28;20069;-57
2021/11/14 01:35:54;;;;;;;32.60;13.20;;;;;;;;;;5024520;28;20045;-58
2021/11/14 01:38:21;;;;;;;31.02;12.95;;;;;;;;;;5019703;28;20459;-57
2021/11/14 01:40:52;;;;;;;30.40;12.88;;;;;;;;;;5017872;28;20033;-57
2021/11/14 01:43:23;;;;;;;32.28;12.98;;;;;;;;;;5018926;28;20037;-57
2021/11/14 01:45:49;;;;;;;27.63;12.63;;;;;;;;;;5022829;28;20073;-57
2021/11/14 01:48:14;;;;;;;30.92;12.23;;;;;;;;;;5028801;28;20033;-57
2021/11/14 01:50:41;;;;;;;29.88;12.30;;;;;;;;;;5026206;28;20068;-57
2021/11/14 01:53:08;;;;;;;25.88;12.05;;;;;;;;;;5019363;28;20060;-58
2021/11/14 01:55:35;;;;;;;25.58;11.02;;;;;;;;;;5021661;28;20159;-57
2021/11/14 01:58:01;;;;;;;25.00;11.38;;;;;;;;;;5026955;28;20471;-57
2021/11/14 02:00:32;;;;;;;27.88;11.82;;;;;;;;;;5021062;28;20076;-57
2021/11/14 02:02:59;;;;;;;30.50;13.10;;;;;;;;;;5019539;28;20144;-57
2021/11/14 02:05:32;;;;;;;28.33;11.75;;;;;;;;;;5025396;28;20030;-57
2021/11/14 02:07:59;;;;;;;29.25;12.57;;;;;;;;;;5023161;28;20033;-57
2021/11/14 02:10:27;;;;;;;24.02;11.27;;;;;;;;;;5022656;28;20037;-57
2021/11/14 02:12:53;;;;;;;30.50;12.35;;;;;;;;;;5021673;28;20040;-57
2021/11/14 02:15:19;;;;;;;27.70;12.82;;;;;;;;;;5015773;28;20034;-57
2021/11/14 02:17:45;;;;;;;27.63;11.48;;;;;;;;;;5022698;28;20393;-57
2021/11/14 02:20:11;;;;;;;30.23;12.23;;;;;;;;;;5022294;28;20035;-57
2021/11/14 02:22:38;;;;;;;29.15;12.05;;;;;;;;;;5016669;28;20029;-57
2021/11/14 02:25:06;;;;;;;26.42;11.80;;;;;;;;;;5022471;28;20030;-57
2021/11/14 02:27:31;;;;;;;26.02;11.35;;;;;;;;;;5020361;28;20040;-57
2021/11/14 02:29:57;;;;;;;24.95;11.68;;;;;;;;;;5020004;28;20026;-57
2021/11/14 02:32:23;;;;;;;24.88;11.68;;;;;;;;;;5019788;28;20075;-57
2021/11/14 02:34:48;;;;;;;28.90;11.80;;;;;;;;;;5023033;28;20096;-57
2021/11/14 02:37:14;;;;;;;26.92;11.35;;;;;;;;;;5022459;28;20042;-57
2021/11/14 02:39:40;;;;;;;29.17;11.80;;;;;;;;;;5016426;28;20387;-57
2021/11/14 02:42:06;;;;;;;27.65;12.65;;;;;;;;;;5020451;28;20025;-57
2021/11/14 02:44:31;;;;;;;26.52;12.80;;;;;;;;;;5020397;28;20033;-57
2021/11/14 02:46:58;;;;;;;30.10;13.40;;;;;;;;;;5022809;28;20032;-57
2021/11/14 02:49:23;;;;;;;27.15;13.25;;;;;;;;;;5018129;28;20184;-57
2021/11/14 02:51:49;;;;;;;30.17;13.95;;;;;;;;;;5020629;28;20200;-57
2021/11/14 02:54:15;;;;;;;34.80;14.73;;;;;;;;;;5018067;28;20400;-57
2021/11/14 02:56:42;;;;;;;36.13;15.52;;;;;;;;;;5023000;28;20044;-57
2021/11/14 02:59:07;;;;;;;35.60;15.80;;;;;;;;;;5024238;28;20514;-57
2021/11/14 03:01:40;;;;;;;37.60;17.38;;;;;;;;;;5022545;28;20033;-57
2021/11/14 03:04:09;;;;;;;38.25;18.30;;;;;;;;;;5019515;28;20017;-57
2021/11/14 03:06:35;;;;;;;36.65;17.08;;;;;;;;;;5018743;28;20057;-57
2021/11/14 03:09:00;;;;;;;37.30;17.92;;;;;;;;;;5020599;28;20030;-57
2021/11/14 03:11:26;;;;;;;34.22;16.08;;;;;;;;;;5018044;28;20071;-57
2021/11/14 03:13:51;;;;;;;32.33;16.17;;;;;;;;;;5021303;28;20145;-57
2021/11/14 03:16:20;;;;;;;33.55;16.75;;;;;;;;;;5023498;28;20408;-57
2021/11/14 03:18:45;;;;;;;34.00;16.38;;;;;;;;;;5017038;28;20112;-57
2021/11/14 03:21:11;;;;;;;35.17;16.33;;;;;;;;;;5021312;28;20120;-57
2021/11/14 03:23:37;;;;;;;35.78;17.38;;;;;;;;;;5021214;28;20037;-57
2021/11/14 03:26:03;;;;;;;36.15;17.60;;;;;;;;;;5021513;28;20531;-57
2021/11/14 03:28:29;;;;;;;32.88;16.38;;;;;;;;;;5021699;28;20131;-57
2021/11/14 03:30:57;;;;;;;36.03;17.75;;;;;;;;;;5020746;28;20047;-57
2021/11/14 03:33:24;;;;;;;34.25;17.02;;;;;;;;;;5016358;28;20040;-57
2021/11/14 03:35:59;;;;;;;33.60;16.58;;;;;;;;;;5020886;28;20030;-58
2021/11/14 03:38:31;;;;;;;36.70;17.50;;;;;;;;;;5018274;28;20040;-57
2021/11/14 03:40:58;;;;;;;34.60;17.17;;;;;;;;;;5019777;28;20033;-57
2021/11/14 03:43:24;;;;;;;38.60;17.00;;;;;;;;;;5018818;28;20025;-57
2021/11/14 03:45:50;;;;;;;30.45;15.38;;;;;;;;;;5018118;28;20124;-57
2021/11/14 03:48:16;;;;;;;31.88;15.82;;;;;;;;;;5022090;28;20033;-57
2021/11/14 03:50:41;;;;;;;30.23;15.57;;;;;;;;;;5018132;28;20480;-57
2021/11/14 03:53:09;;;;;;;31.35;15.70;;;;;;;;;;5019695;28;20029;-57
2021/11/14 03:55:35;;;;;;;32.53;15.43;;;;;;;;;;5023872;28;20128;-57
2021/11/14 03:58:01;;;;;;;35.60;14.82;;;;;;;;;;5021364;28;20125;-57
2021/11/14 04:00:29;;;;;;;35.25;16.83;;;;;;;;;;5023016;28;20061;-57
2021/11/14 04:02:57;;;;;;;36.60;16.33;;;;;;;;;;5022322;28;20047;-57
2021/11/14 04:05:25;;;;;;;34.25;16.17;;;;;;;;;;5017311;28;20276;-57
2021/11/14 04:07:51;;;;;;;32.75;16.27;;;;;;;;;;5017071;28;20448;-58
2021/11/14 04:10:17;;;;;;;34.17;14.95;;;;;;;;;;5022279;28;20120;-57
2021/11/14 04:12:43;;;;;;;32.58;14.60;;;;;;;;;;5020153;28;20136;-57
2021/11/14 04:15:12;;;;;;;33.58;14.75;;;;;;;;;;5021404;28;20101;-57
2021/11/14 04:17:38;;;;;;;34.20;15.38;;;;;;;;;;5017035;28;20046;-57
2021/11/14 04:20:05;;;;;;;33.38;15.65;;;;;;;;;;5023306;28;20555;-57
2021/11/14 04:22:30;;;;;;;36.92;15.95;;;;;;;;;;5019829;28;20029;-57
2021/11/14 04:24:56;;;;;;;37.10;16.75;;;;;;;;;;5022173;28;20083;-57
2021/11/14 04:27:21;;;;;;;36.22;16.67;;;;;;;;;;5025921;28;20029;-57
2021/11/14 04:29:47;;;;;;;38.55;16.65;;;;;;;;;;5026933;28;20560;-57
2021/11/14 04:32:12;;;;;;;35.97;15.80;;;;;;;;;;5024942;28;20120;-57
2021/11/14 04:34:40;;;;;;;33.65;15.05;;;;;;;;;;5019761;28;20480;-57
2021/11/14 04:37:05;;;;;;;35.70;16.27;;;;;;;;;;5026710;28;20034;-57
2021/11/14 04:39:31;;;;;;;36.97;16.25;;;;;;;;;;5029860;28;20108;-57
2021/11/14 04:41:57;;;;;;;32.10;15.93;;;;;;;;;;5018769;28;20455;-57
2021/11/14 04:44:24;;;;;;;30.52;15.50;;;;;;;;;;5020155;28;20113;-57
2021/11/14 04:46:50;;;;;;;36.50;18.75;;;;;;;;;;5022149;28;20029;-57
2021/11/14 04:49:19;;;;;;;41.63;19.77;;;;;;;;;;5021854;28;20064;-57
2021/11/14 04:51:45;;;;;;;43.30;20.67;;;;;;;;;;5024628;28;20499;-57
2021/11/14 04:54:10;;;;;;;35.83;19.23;;;;;;;;;;5022623;28;20044;-57
2021/11/14 04:56:37;;;;;;;35.10;18.38;;;;;;;;;;5021970;28;20483;-57
2021/11/14 04:59:02;;;;;;;37.13;18.75;;;;;;;;;;5026015;28;20458;-57
2021/11/14 05:01:28;;;;;;;37.17;18.30;;;;;;;;;;5021876;28;20120;-57
2021/11/14 05:03:53;;;;;;;36.15;19.02;;;;;;;;;;5024023;28;20049;-57
2021/11/14 05:06:19;;;;;;;37.90;18.55;;;;;;;;;;5019766;28;20216;-57
2021/11/14 05:08:44;;;;;;;38.92;19.40;;;;;;;;;;5025234;28;20128;-57
2021/11/14 05:11:10;;;;;;;40.05;19.48;;;;;;;;;;5020780;28;20026;-57
2021/11/14 05:13:36;;;;;;;34.80;18.23;;;;;;;;;;5021077;28;20480;-57
2021/11/14 05:16:01;;;;;;;35.67;17.70;;;;;;;;;;5022653;28;20021;-57
2021/11/14 05:18:26;;;;;;;35.08;17.35;;;;;;;;;;5023774;28;20489;-57
2021/11/14 05:20:52;;;;;;;36.03;18.33;;;;;;;;;;5022921;28;20041;-57
2021/11/14 05:23:18;;;;;;;36.83;16.95;;;;;;;;;;5021681;28;20072;-57
2021/11/14 05:25:44;;;;;;;31.60;16.63;;;;;;;;;;5024119;28;20091;-57
2021/11/14 05:28:10;;;;;;;37.63;18.42;;;;;;;;;;5020639;28;20067;-57
2021/11/14 05:30:35;;;;;;;35.70;18.17;;;;;;;;;;5020001;28;20029;-57
2021/11/14 05:33:02;;;;;;;34.47;17.65;;;;;;;;;;5017891;28;20033;-57
2021/11/14 05:35:28;;;;;;;41.60;19.63;;;;;;;;;;5019452;28;20033;-57
2021/11/14 05:37:53;;;;;;;38.63;18.13;;;;;;;;;;5016695;28;20029;-57
2021/11/14 05:40:19;;;;;;;37.50;17.92;;;;;;;;;;5021748;28;20502;-57
2021/11/14 05:42:44;;;;;;;40.38;20.30;;;;;;;;;;5023849;28;20060;-57
2021/11/14 05:45:10;;;;;;;37.78;19.17;;;;;;;;;;5025836;28;20053;-57
2021/11/14 05:47:35;;;;;;;37.80;19.00;;;;;;;;;;5027509;28;20041;-57
2021/11/14 05:50:02;;;;;;;35.08;17.45;;;;;;;;;;5015827;28;20025;-57
2021/11/14 05:52:27;;;;;;;34.22;17.27;;;;;;;;;;5021211;28;20407;-57
2021/11/14 05:54:53;;;;;;;39.15;18.15;;;;;;;;;;5020790;28;20025;-57
2021/11/14 05:57:18;;;;;;;35.70;17.13;;;;;;;;;;5029293;28;20517;-57
2021/11/14 06:00:04;;;;;;;35.35;16.88;;;;;;;;;;5023939;28;20456;-57
2021/11/14 06:05:03;;;;;;;35.78;18.67;;;;;;;;;;5024854;28;20476;-57
2021/11/14 06:07:30;;;;;;;35.38;18.00;;;;;;;;;;5015823;28;20033;-57
2021/11/14 06:10:01;;;;;;;33.10;15.88;;;;;;;;;;5021500;28;20040;-57
2021/11/14 06:12:27;;;;;;;33.83;16.38;;;;;;;;;;5022066;28;20423;-57
2021/11/14 06:14:53;;;;;;;32.28;16.15;;;;;;;;;;5020160;28;20021;-58
2021/11/14 06:17:20;;;;;;;31.50;14.50;;;;;;;;;;5026202;28;20418;-58
2021/11/14 06:19:47;;;;;;;30.15;14.20;;;;;;;;;;5021930;28;20452;-57
2021/11/14 06:22:13;;;;;;;30.50;13.63;;;;;;;;;;5018088;28;20187;-57
2021/11/14 06:24:38;;;;;;;29.92;13.60;;;;;;;;;;5021381;28;20479;-57
2021/11/14 06:27:04;;;;;;;27.63;12.30;;;;;;;;;;5023231;28;20040;-57
2021/11/14 06:29:29;;;;;;;27.80;13.13;;;;;;;;;;5022632;28;20038;-57
2021/11/14 06:31:55;;;;;;;26.25;11.90;;;;;;;;;;5018754;28;20021;-58
2021/11/14 06:34:20;;;;;;;33.92;14.02;;;;;;;;;;5019954;28;20043;-57
2021/11/14 06:36:45;;;;;;;28.50;12.77;;;;;;;;;;5021324;28;20094;-57
2021/11/14 06:39:11;;;;;;;26.48;12.20;;;;;;;;;;5026568;28;20116;-58
2021/11/14 06:41:36;;;;;;;26.35;12.90;;;;;;;;;;5021434;28;20029;-57
2021/11/14 06:44:02;;;;;;;29.85;13.82;;;;;;;;;;5020279;28;20072;-57
2021/11/14 06:46:27;;;;;;;35.65;15.75;;;;;;;;;;5023238;28;20148;-57
2021/11/14 06:48:53;;;;;;;38.88;16.50;;;;;;;;;;5022524;28;20029;-58
2021/11/14 06:51:18;;;;;;;37.17;16.10;;;;;;;;;;5022134;28;20025;-58
2021/11/14 06:53:43;;;;;;;32.88;16.83;;;;;;;;;;5020780;28;20510;-57
2021/11/14 06:56:09;;;;;;;40.47;17.70;;;;;;;;;;5020710;28;20049;-57
2021/11/14 06:58:34;;;;;;;35.80;19.40;;;;;;;;;;5023182;28;20086;-57
2021/11/14 07:01:00;;;;;;;37.42;20.25;;;;;;;;;;5019729;28;20029;-58
2021/11/14 07:03:25;;;;;;;42.35;21.73;;;;;;;;;;5018524;28;20665;-58
2021/11/14 07:05:51;;;;;;;41.13;21.20;;;;;;;;;;5017874;28;20477;-59
2021/11/14 07:08:16;;;;;;;39.28;19.10;;;;;;;;;;5021580;28;20053;-58
2021/11/14 07:10:42;;;;;;;39.90;19.73;;;;;;;;;;5019752;28;20025;-57
2021/11/14 07:13:07;;;;;;;36.15;18.23;;;;;;;;;;5021570;28;20141;-57
2021/11/14 07:15:33;;;;;;;39.90;18.27;;;;;;;;;;5023217;28;20018;-57
2021/11/14 07:17:58;;;;;;;33.33;18.00;;;;;;;;;;5020513;28;20041;-57
2021/11/14 07:20:24;;;;;;;40.97;18.60;;;;;;;;;;5023829;28;20302;-57
2021/11/14 07:22:49;;;;;;;40.05;18.55;;;;;;;;;;5015075;28;20867;-57
2021/11/14 07:25:18;;;;;;;37.60;18.60;;;;;;;;;;5020450;28;20041;-57
2021/11/14 07:27:45;;;;;;;36.88;17.80;;;;;;;;;;5027559;28;20025;-57
2021/11/14 07:30:12;;;;;;;38.65;18.85;;;;;;;;;;5016921;28;20195;-57
2021/11/14 07:32:42;;;;;;;36.78;17.95;;;;;;;;;;5017544;28;20485;-57
2021/11/14 07:35:09;;;;;;;31.35;16.33;;;;;;;;;;5020693;28;20194;-57
2021/11/14 07:37:35;;;;;;;31.83;16.88;;;;;;;;;;5021589;28;20116;-58
2021/11/14 07:40:00;;;;;;;31.75;16.63;;;;;;;;;;5022110;28;20148;-57
2021/11/14 07:42:26;;;;;;;31.52;16.02;;;;;;;;;;5019685;28;20030;-57
2021/11/14 07:44:51;;;;;;;31.95;15.65;;;;;;;;;;5018275;28;20025;-58
2021/11/14 07:47:17;;;;;;;34.13;16.00;;;;;;;;;;5020315;28;20047;-57
2021/11/14 07:49:42;;;;;;;35.92;17.25;;;;;;;;;;5018551;28;20029;-57
2021/11/14 07:52:08;;;;;;;35.70;19.05;;;;;;;;;;5017358;28;20036;-57
2021/11/14 07:54:33;;;;;;;37.00;18.88;;;;;;;;;;5022595;28;20026;-57
2021/11/14 07:56:58;;;;;;;33.50;18.25;;;;;;;;;;5024767;28;20025;-57
2021/11/14 07:59:24;;;;;;;45.92;21.02;;;;;;;;;;5026858;28;20128;-57
2021/11/14 08:01:49;;;;;;;42.58;20.98;;;;;;;;;;5021253;28;20033;-57
2021/11/14 08:04:15;;;;;;;43.88;21.48;;;;;;;;;;5022200;28;20033;-57
2021/11/14 08:06:41;;;;;;;73.45;31.58;;;;;;;;;;5028755;28;20029;-57
2021/11/14 08:09:06;;;;;;;50.47;21.98;;;;;;;;;;5025658;28;20029;-56
2021/11/14 08:11:33;;;;;;;29.92;13.40;;;;;;;;;;5019262;28;20112;-57
2021/11/14 08:13:58;;;;;;;24.13;10.82;;;;;;;;;;5024020;28;20922;-57
2021/11/14 08:16:24;;;;;;;21.58;8.63;;;;;;;;;;5022555;28;20021;-57
2021/11/14 08:18:49;;;;;;;17.73;8.40;;;;;;;;;;5022728;28;20043;-57
2021/11/14 08:21:14;;;;;;;25.63;13.30;;;;;;;;;;5023148;28;20116;-57
2021/11/14 08:23:40;;;;;;;37.72;17.80;;;;;;;;;;5024680;28;20128;-57
2021/11/14 08:26:05;;;;;;;46.97;22.27;;;;;;;;;;5020465;28;20018;-57
2021/11/14 08:28:31;;;;;;;49.40;20.25;;;;;;;;;;5019367;28;20025;-57
2021/11/14 08:30:56;;;;;;;34.60;14.63;;;;;;;;;;5022883;28;20025;-57
2021/11/14 08:33:23;;;;;;;76.55;33.88;;;;;;;;;;5023896;28;20369;-57
2021/11/14 08:35:48;;;;;;;45.13;20.83;;;;;;;;;;5022364;28;20395;-57
2021/11/14 08:38:14;;;;;;;25.40;10.82;;;;;;;;;;5025113;28;20108;-57
2021/11/14 08:40:39;;;;;;;30.25;12.10;;;;;;;;;;5022078;28;20034;-57
2021/11/14 08:43:07;;;;;;;37.35;14.95;;;;;;;;;;5021930;28;20036;-57
2021/11/14 08:45:33;;;;;;;28.27;11.82;;;;;;;;;;5025724;28;20107;-57
2021/11/14 08:47:59;;;;;;;18.55;8.30;;;;;;;;;;5019254;28;20041;-57
2021/11/14 08:50:27;;;;;;;18.58;9.05;;;;;;;;;;5025138;28;20043;-57
2021/11/14 08:52:54;;;;;;;29.88;13.13;;;;;;;;;;5020697;28;20033;-58
2021/11/14 08:55:22;;;;;;;35.63;16.98;;;;;;;;;;5024479;28;20022;-57
2021/11/14 08:57:49;;;;;;;41.42;17.50;;;;;;;;;;5026081;28;20037;-57
2021/11/14 09:00:18;;;;;;;42.35;19.45;;;;;;;;;;5026267;28;20035;-57
2021/11/14 09:02:43;;;;;;;31.35;13.52;;;;;;;;;;5021162;28;20034;-58
2021/11/14 09:05:09;;;;;;;69.43;26.00;;;;;;;;;;5024048;28;20018;-57
2021/11/14 09:07:35;;;;;;;50.25;20.73;;;;;;;;;;5020992;28;20034;-57
2021/11/14 09:10:01;;;;;;;39.38;18.67;;;;;;;;;;5021860;28;20052;-57
2021/11/14 09:12:27;;;;;;;34.28;19.52;;;;;;;;;;5019779;28;20425;-55
2021/11/14 09:14:55;;;;;;;35.83;19.23;;;;;;;;;;5022570;28;20028;-57
2021/11/14 09:17:21;;;;;;;33.17;18.97;;;;;;;;;;5020229;28;20042;-57
2021/11/14 09:19:47;;;;;;;38.40;20.83;;;;;;;;;;5022784;28;20414;-57
2021/11/14 09:22:13;;;;;;;66.18;32.50;;;;;;;;;;5024225;28;20026;-55
2021/11/14 09:24:39;;;;;;;43.22;22.42;;;;;;;;;;5023131;28;20026;-56
2021/11/14 09:27:06;;;;;;;37.70;20.35;;;;;;;;;;5026096;28;20060;-53
2021/11/14 09:29:31;;;;;;;37.45;21.05;;;;;;;;;;5023506;28;20029;-54
2021/11/14 09:31:57;;;;;;;35.50;19.65;;;;;;;;;;5018945;28;20036;-55
2021/11/14 09:34:22;;;;;;;34.22;19.75;;;;;;;;;;5016779;28;20022;-54
2021/11/14 09:36:48;;;;;;;38.88;21.45;;;;;;;;;;5023416;28;20033;-55
2021/11/14 09:39:14;;;;;;;38.60;19.83;;;;;;;;;;5026982;28;20017;-55
2021/11/14 09:41:48;;;;;;;30.50;15.85;;;;;;;;;;5021542;28;20064;-54
2021/11/14 09:44:16;;;;;;;28.20;13.95;;;;;;;;;;5022801;28;20068;-54
2021/11/14 09:46:51;;;;;;;26.17;13.48;;;;;;;;;;5023136;28;20022;-55
2021/11/14 09:49:19;;;;;;;25.30;14.52;;;;;;;;;;5022240;28;20055;-54
2021/11/14 09:51:47;;;;;;;28.38;14.80;;;;;;;;;;5020125;28;20452;-54
2021/11/14 09:54:13;;;;;;;26.55;15.10;;;;;;;;;;5018481;28;20029;-52
2021/11/14 09:56:38;;;;;;;28.70;14.85;;;;;;;;;;5026538;28;20033;-54
2021/11/14 09:59:04;;;;;;;29.90;15.40;;;;;;;;;;5022384;28;20029;-54
2021/11/14 10:01:29;;;;;;;34.13;17.92;;;;;;;;;;5023172;28;20052;-54
2021/11/14 10:03:55;;;;;;;29.88;15.52;;;;;;;;;;5022294;28;20314;-53
2021/11/14 10:06:22;;;;;;;28.73;15.63;;;;;;;;;;5025996;28;20047;-54
2021/11/14 10:08:49;;;;;;;29.63;15.43;;;;;;;;;;5019952;28;20036;-54
2021/11/14 10:11:15;;;;;;;29.17;15.63;;;;;;;;;;5018106;28;20139;-54
2021/11/14 10:13:46;;;;;;;28.88;15.02;;;;;;;;;;5021305;28;20148;-53
2021/11/14 10:16:16;;;;;;;33.20;17.20;;;;;;;;;;5022716;28;20076;-55
2021/11/14 10:18:51;;;;;;;84.28;25.60;;;;;;;;;;5022080;28;20095;-53
2021/11/14 10:21:17;;;;;;;69.80;24.77;;;;;;;;;;5015847;28;20219;-53
2021/11/14 10:23:43;;;;;;;66.15;24.33;;;;;;;;;;5019665;28;20439;-54
2021/11/14 10:26:11;;;;;;;45.85;19.00;;;;;;;;;;5024921;28;20095;-55
2021/11/14 10:28:43;;;;;;;34.95;17.45;;;;;;;;;;5024540;28;20037;-53
2021/11/14 10:31:09;;;;;;;57.55;22.10;;;;;;;;;;5021654;28;20030;-55
2021/11/14 10:33:35;;;;;;;37.35;17.85;;;;;;;;;;5022107;28;20040;-54
2021/11/14 10:36:03;;;;;;;37.05;18.27;;;;;;;;;;5021432;28;20036;-55
2021/11/14 10:38:31;;;;;;;42.05;17.85;;;;;;;;;;5024638;28;20033;-53
2021/11/14 10:41:00;;;;;;;34.58;17.38;;;;;;;;;;5021544;28;20507;-55
2021/11/14 10:43:28;;;;;;;34.00;16.75;;;;;;;;;;5020812;28;20033;-55
2021/11/14 10:45:58;;;;;;;35.40;16.75;;;;;;;;;;5021183;28;20021;-54
2021/11/14 10:48:26;;;;;;;36.40;16.83;;;;;;;;;;5022151;28;20072;-54
2021/11/14 10:51:01;;;;;;;37.25;17.95;;;;;;;;;;5016226;28;20496;-58
2021/11/14 10:53:30;;;;;;;39.03;18.58;;;;;;;;;;5021045;28;20029;-56
2021/11/14 10:55:59;;;;;;;38.60;18.83;;;;;;;;;;5019203;28;20052;-55
2021/11/14 10:58:28;;;;;;;38.25;19.23;;;;;;;;;;5021373;28;20045;-54
2021/11/14 11:01:00;;;;;;;41.60;20.15;;;;;;;;;;5016598;28;20044;-53
2021/11/14 11:03:33;;;;;;;48.97;20.17;;;;;;;;;;5020303;28;20559;-55
2021/11/14 11:06:04;;;;;;;41.80;18.77;;;;;;;;;;5023076;28;20036;-55
2021/11/14 11:08:30;;;;;;;43.55;19.25;;;;;;;;;;5020111;28;20075;-58
2021/11/14 11:11:00;;;;;;;43.17;19.25;;;;;;;;;;5019779;28;20017;-53
2021/11/14 11:13:44;;;;;;;42.03;18.55;;;;;;;;;;5019958;28;20033;-55
2021/11/14 11:16:10;;;;;;;39.75;18.30;;;;;;;;;;5024146;28;20104;-53
2021/11/14 11:18:38;;;;;;;46.80;20.35;;;;;;;;;;5015765;28;20557;-55
2021/11/14 11:21:06;;;;;;;43.15;19.23;;;;;;;;;;5012390;28;20112;-55
2021/11/14 11:23:34;;;;;;;46.17;19.80;;;;;;;;;;5021119;28;20033;-56
2021/11/14 11:26:05;;;;;;;48.90;20.30;;;;;;;;;;5018634;28;20021;-56
2021/11/14 11:28:33;;;;;;;47.20;19.15;;;;;;;;;;5013094;28;20025;-55
2021/11/14 11:31:03;;;;;;;44.70;18.75;;;;;;;;;;5017576;28;20040;-55
2021/11/14 11:33:30;;;;;;;;;;;;;;;;;;5023216;28;20034;-57
2021/11/14 11:35:56;;;;;;;42.97;18.02;;;;;;;;;;5016420;28;19954;-55
2021/11/14 11:38:25;;;;;;;48.00;18.98;;;;;;;;;;5022168;28;20033;-55
2021/11/14 11:40:51;;;;;;;47.28;18.55;;;;;;;;;;5026688;28;20021;-55
2021/11/14 11:43:17;;;;;;;63.40;20.30;;;;;;;;;;5020074;28;20030;-55
2021/11/14 11:45:44;;;;;;;53.70;17.27;;;;;;;;;;5022307;28;20355;-53
2021/11/14 11:48:30;;;;;;;63.72;20.80;;;;;;;;;;5022452;28;20724;-55
2021/11/14 11:51:11;;;;;;;51.58;17.15;;;;;;;;;;5021669;28;20375;-54
2021/11/14 11:53:37;;;;;;;44.03;14.73;;;;;;;;;;5019896;28;20083;-55
2021/11/14 11:56:12;;;;;;;37.10;14.57;;;;;;;;;;5023838;28;20024;-57
2021/11/14 11:58:40;;;;;;;31.52;13.13;;;;;;;;;;5029478;28;20494;-57
2021/11/14 12:01:06;;;;;;;34.15;12.50;;;;;;;;;;5023012;28;20029;-57
2021/11/14 12:03:35;;;;;;;33.47;13.43;;;;;;;;;;5029702;28;20615;-57
2021/11/14 12:06:02;;;;;;;31.98;13.02;;;;;;;;;;5026145;28;20107;-57
2021/11/14 12:08:43;;;;;;;32.10;12.95;;;;;;;;;;5022459;28;20075;-57
2021/11/14 12:11:10;;;;;;;30.40;11.80;;;;;;;;;;5023429;28;20120;-57
2021/11/14 12:13:40;;;;;;;32.78;13.50;;;;;;;;;;5019436;28;20025;-56
2021/11/14 12:16:05;;;;;;;;;;;;;;;;;;5022138;28;20028;-56
2021/11/14 12:18:38;;;;;;;38.72;13.75;;;;;;;;;;5027800;28;19921;-58
2021/11/14 12:21:16;;;;;;;35.83;14.13;;;;;;;;;;5023685;28;20028;-57
2021/11/14 12:24:11;;;;;;;56.25;18.05;;;;;;;;;;5026171;28;20021;-57
2021/11/14 12:26:37;;;;;;;82.90;26.77;;;;;;;;;;5017589;28;20069;-56
2021/11/14 12:29:07;;;;;;;119.82;30.00;;;;;;;;;;5020639;28;20440;-56
2021/11/14 12:31:47;;;;;;;61.10;19.20;;;;;;;;;;5026855;28;20101;-56
2021/11/14 12:34:21;;;;;;;48.35;16.60;;;;;;;;;;5023396;28;20026;-56
2021/11/14 12:36:46;;;;;;;72.63;22.00;;;;;;;;;;5021235;28;20375;-57
2021/11/14 12:39:31;;;;;;;59.08;18.55;;;;;;;;;;5022820;28;20041;-57
2021/11/14 12:42:08;;;;;;;38.72;14.52;;;;;;;;;;5025670;28;20028;-56
2021/11/14 12:44:44;;;;;;;53.58;19.13;;;;;;;;;;5024664;28;20401;-56
2021/11/14 12:47:24;;;;;;;53.30;17.50;;;;;;;;;;5023250;28;20041;-58
2021/11/14 12:50:23;;;;;;;47.45;16.20;;;;;;;;;;5018250;28;20029;-56
2021/11/14 12:53:02;;;;;;;38.70;15.13;;;;;;;;;;5015816;28;20049;-56
2021/11/14 12:55:27;;;;;;;35.83;14.13;;;;;;;;;;5021093;28;20027;-54
2021/11/14 12:57:55;;;;;;;45.13;15.75;;;;;;;;;;5026002;28;20437;-57
2021/11/14 13:00:43;;;;;;;56.58;17.90;;;;;;;;;;5026101;28;20036;-55
2021/11/14 13:03:29;;;;;;;75.15;20.92;;;;;;;;;;5019305;28;20025;-56
2021/11/14 13:05:58;;;;;;;51.92;18.08;;;;;;;;;;5022641;28;20026;-54
2021/11/14 13:08:29;;;;;;;56.88;19.08;;;;;;;;;;5017196;28;20090;-57
2021/11/14 13:10:59;;;;;;;76.30;23.02;;;;;;;;;;5022019;28;20033;-57
2021/11/14 13:13:39;;;;;;;61.80;20.85;;;;;;;;;;5022144;28;20021;-57
2021/11/14 13:16:09;;;;;;;87.15;24.63;;;;;;;;;;5019082;28;20113;-56
2021/11/14 13:18:34;;;;;;;;;;;;;;;;;;5016916;28;20036;-56
2021/11/14 13:21:05;;;;;;;87.68;24.15;;;;;;;;;;5015531;28;20372;-56
2021/11/14 13:23:30;;;;;;;59.42;19.88;;;;;;;;;;5014574;28;20026;-56
2021/11/14 13:26:11;;;;;;;46.28;17.92;;;;;;;;;;5020543;28;20022;-57
2021/11/14 13:28:38;;;;;;;44.65;16.88;;;;;;;;;;5016546;28;20029;-57
2021/11/14 13:31:23;;;;;;;41.17;17.92;;;;;;;;;;5016992;28;20055;-58
2021/11/14 13:33:59;;;;;;;34.42;15.65;;;;;;;;;;5015848;28;20056;-58
2021/11/14 13:36:24;;;;;;;33.70;15.52;;;;;;;;;;5021175;28;20041;-58
2021/11/14 13:38:50;;;;;;;35.85;15.85;;;;;;;;;;5021814;28;20043;-56
2021/11/14 13:41:17;;;;;;;34.40;15.75;;;;;;;;;;5021717;28;20112;-57
2021/11/14 13:43:58;;;;;;;30.67;13.82;;;;;;;;;;5017781;28;20029;-56
2021/11/14 13:46:29;;;;;;;31.73;14.27;;;;;;;;;;5023680;28;20086;-57
2021/11/14 13:49:00;;;;;;;36.15;14.43;;;;;;;;;;5021138;28;20055;-57
2021/11/14 13:51:28;;;;;;;35.75;15.98;;;;;;;;;;5015153;28;20039;-57
2021/11/14 13:53:54;;;;;;;36.22;14.82;;;;;;;;;;5013034;28;20059;-55
2021/11/14 13:56:20;;;;;;;38.60;16.67;;;;;;;;;;5023901;28;20430;-55
2021/11/14 13:58:54;;;;;;;50.40;19.02;;;;;;;;;;5018156;28;20558;-55
2021/11/14 14:01:22;;;;;;;56.25;18.80;;;;;;;;;;5017002;28;20117;-55
2021/11/14 14:03:50;;;;;;;61.78;21.58;;;;;;;;;;5020591;28;20406;-55
2021/11/14 14:06:20;;;;;;;56.05;20.17;;;;;;;;;;5020104;28;20044;-56
2021/11/14 14:08:47;;;;;;;45.90;18.92;;;;;;;;;;5021176;28;20021;-56
2021/11/14 14:11:16;;;;;;;45.35;19.67;;;;;;;;;;5019911;28;20025;-56
2021/11/14 14:13:53;;;;;;;44.40;19.23;;;;;;;;;;5017805;28;20466;-56
2021/11/14 14:16:19;;;;;;;47.20;20.27;;;;;;;;;;5016802;28;20147;-54
2021/11/14 14:18:45;;;;;;;49.63;21.35;;;;;;;;;;5024142;28;20136;-55
2021/11/14 14:21:10;;;;;;;48.53;20.25;;;;;;;;;;5023593;28;20512;-56
2021/11/14 14:23:38;;;;;;;48.53;20.00;;;;;;;;;;5020602;28;20037;-55